Time;durP1;ratioP1;P1;durP2;ratioP2;P2;SDS_P1;SDS_P2;PMS_P1;PMS_P2;Temp;Humidity;BMP_temperature;BMP_pressure;BME280_temperature;BME280_humidity;BME280_pressure;Samples;Min_cycle;Max_cycle;Signal;HPM_P1;HPM_P2
2022/03/26 00:00:00;;;;;;;50.05;45.15;;;8.20;62.90;;;;;;5092084;28;20224;-72
2022/03/26 00:02:28;;;;;;;50.58;45.70;;;8.10;62.80;;;;;;5092048;28;20224;-72
2022/03/26 00:04:55;;;;;;;52.95;47.58;;;8.10;63.30;;;;;;5092224;28;20197;-73
2022/03/26 00:07:22;;;;;;;49.35;44.58;;;8.10;63.60;;;;;;5092146;28;20225;-72
2022/03/26 00:09:49;;;;;;;51.63;46.45;;;8.00;63.40;;;;;;5092060;28;20294;-72
2022/03/26 00:12:16;;;;;;;49.28;44.65;;;8.00;63.40;;;;;;5092062;28;20227;-72
2022/03/26 00:14:42;;;;;;;51.88;46.80;;;8.10;63.00;;;;;;5094847;28;20199;-72
2022/03/26 00:17:11;;;;;;;50.22;45.67;;;8.10;63.20;;;;;;5095891;28;20562;-72
2022/03/26 00:19:38;;;;;;;51.10;46.03;;;8.10;63.30;;;;;;5095662;28;20296;-72
2022/03/26 00:22:05;;;;;;;53.00;47.60;;;8.10;63.40;;;;;;5095819;28;20213;-72
2022/03/26 00:24:32;;;;;;;51.15;46.05;;;8.00;64.10;;;;;;5095838;28;20196;-72
2022/03/26 00:26:59;;;;;;;52.35;46.97;;;7.80;65.40;;;;;;5095595;28;20582;-72
2022/03/26 00:29:26;;;;;;;51.38;46.05;;;7.80;64.70;;;;;;5095348;28;20575;-73
2022/03/26 00:31:52;;;;;;;48.92;44.10;;;7.80;64.80;;;;;;5095457;28;20213;-72
2022/03/26 00:34:21;;;;;;;51.90;46.85;;;7.70;64.50;;;;;;5095501;28;20191;-72
2022/03/26 00:36:48;;;;;;;52.63;47.13;;;7.70;64.60;;;;;;5095645;28;20222;-72
2022/03/26 00:39:15;;;;;;;49.92;44.83;;;7.70;64.70;;;;;;5095236;28;20200;-72
2022/03/26 00:41:41;;;;;;;51.30;46.08;;;7.70;64.50;;;;;;5095465;28;20206;-72
2022/03/26 00:44:08;;;;;;;50.45;45.67;;;7.60;64.60;;;;;;5095443;28;20201;-72
2022/03/26 00:46:35;;;;;;;49.95;45.05;;;7.60;64.90;;;;;;5095292;28;20252;-72
2022/03/26 00:49:02;;;;;;;49.47;44.38;;;7.60;64.90;;;;;;5095240;28;20204;-72
2022/03/26 00:51:30;;;;;;;51.22;46.10;;;7.50;65.10;;;;;;5095099;28;20202;-72
2022/03/26 00:53:57;;;;;;;47.40;43.35;;;7.50;65.20;;;;;;5095370;28;20544;-72
2022/03/26 00:56:24;;;;;;;50.80;45.83;;;7.50;65.00;;;;;;5095002;28;20679;-72
2022/03/26 00:58:51;;;;;;;49.67;44.28;;;7.40;65.10;;;;;;5095037;28;20208;-72
2022/03/26 01:01:18;;;;;;;49.53;44.70;;;7.40;65.50;;;;;;5094713;28;20578;-72
2022/03/26 01:03:45;;;;;;;50.80;45.78;;;7.30;65.70;;;;;;5095166;28;20234;-72
2022/03/26 01:06:12;;;;;;;50.35;45.38;;;7.40;65.40;;;;;;5094942;28;20282;-72
2022/03/26 01:08:40;;;;;;;49.78;44.95;;;7.30;65.50;;;;;;5094982;28;20214;-72
2022/03/26 01:11:07;;;;;;;49.63;44.58;;;7.30;65.50;;;;;;5094741;28;20758;-73
2022/03/26 01:13:34;;;;;;;51.08;46.17;;;7.20;66.60;;;;;;5094705;28;20778;-72
2022/03/26 01:16:02;;;;;;;49.40;44.55;;;7.10;66.60;;;;;;5094945;28;20202;-72
2022/03/26 01:18:29;;;;;;;52.05;46.85;;;7.10;66.40;;;;;;5094681;28;20205;-72
2022/03/26 01:20:56;;;;;;;50.40;45.25;;;7.00;66.70;;;;;;5094677;28;20199;-72
2022/03/26 01:23:23;;;;;;;49.67;44.53;;;7.10;66.60;;;;;;5094619;28;20221;-72
2022/03/26 01:25:52;;;;;;;50.60;45.50;;;7.00;66.80;;;;;;5094312;28;20195;-72
2022/03/26 01:28:19;;;;;;;49.80;44.85;;;7.00;67.00;;;;;;5094330;28;20221;-72
2022/03/26 01:30:46;;;;;;;48.65;44.22;;;7.00;66.90;;;;;;5094403;28;20196;-72
2022/03/26 01:33:13;;;;;;;50.00;45.40;;;7.00;67.00;;;;;;5094529;28;20216;-72
2022/03/26 01:35:40;;;;;;;50.78;46.15;;;7.10;66.90;;;;;;5094486;28;20205;-72
2022/03/26 01:38:07;;;;;;;49.80;44.80;;;7.10;66.60;;;;;;5094480;28;20202;-72
2022/03/26 01:40:35;;;;;;;49.95;45.03;;;7.00;66.60;;;;;;5094083;28;20196;-72
2022/03/26 01:43:04;;;;;;;48.40;43.95;;;6.90;67.00;;;;;;5094196;28;20259;-72
2022/03/26 01:45:31;;;;;;;49.70;45.00;;;6.80;67.20;;;;;;5094261;28;20200;-72
2022/03/26 01:48:00;;;;;;;49.30;44.45;;;6.80;68.40;;;;;;5094108;28;20226;-72
2022/03/26 01:50:29;;;;;;;49.25;44.08;;;6.70;68.60;;;;;;5093950;28;20199;-72
2022/03/26 01:52:56;;;;;;;48.70;43.95;;;6.70;68.10;;;;;;5093953;28;20227;-72
2022/03/26 01:55:24;;;;;;;49.70;44.90;;;6.70;67.70;;;;;;5093975;28;20200;-72
2022/03/26 01:57:53;;;;;;;49.00;44.15;;;6.80;67.60;;;;;;5093703;28;20200;-72
2022/03/26 02:00:21;;;;;;;51.05;46.08;;;6.80;67.20;;;;;;5093692;28;20195;-72
2022/03/26 02:02:48;;;;;;;49.08;44.20;;;6.90;67.10;;;;;;5093686;28;20222;-72
2022/03/26 02:05:17;;;;;;;50.17;45.35;;;6.70;67.30;;;;;;5093926;28;20565;-72
2022/03/26 02:07:45;;;;;;;50.75;45.58;;;6.60;67.90;;;;;;5093712;28;20219;-72
2022/03/26 02:10:13;;;;;;;50.90;45.85;;;6.50;68.20;;;;;;5093619;28;20657;-72
2022/03/26 02:12:41;;;;;;;50.13;45.30;;;6.50;68.20;;;;;;5093763;28;20588;-72
2022/03/26 02:15:11;;;;;;;51.63;46.40;;;6.50;68.00;;;;;;5093782;28;20196;-72
2022/03/26 02:17:39;;;;;;;50.95;45.85;;;6.40;68.20;;;;;;5093613;28;20196;-72
2022/03/26 02:20:09;;;;;;;50.53;45.70;;;6.50;68.20;;;;;;5093256;28;20219;-72
2022/03/26 02:22:38;;;;;;;52.38;47.47;;;6.40;68.30;;;;;;5093607;28;20717;-72
2022/03/26 02:25:06;;;;;;;51.28;46.38;;;6.40;68.40;;;;;;5093389;28;20203;-72
2022/03/26 02:27:34;;;;;;;50.65;45.75;;;6.40;68.30;;;;;;5093486;28;20307;-72
2022/03/26 02:30:02;;;;;;;51.33;46.22;;;6.40;68.30;;;;;;5093286;28;20199;-72
2022/03/26 02:32:29;;;;;;;48.05;43.25;;;6.40;68.30;;;;;;5093417;28;20303;-72
2022/03/26 02:34:57;;;;;;;52.78;47.55;;;6.40;68.30;;;;;;5093346;28;20202;-72
2022/03/26 02:37:25;;;;;;;51.15;45.95;;;6.30;68.60;;;;;;5092579;28;20279;-72
2022/03/26 02:39:52;;;;;;;50.92;46.05;;;6.20;69.10;;;;;;5093173;28;20274;-72
2022/03/26 02:42:20;;;;;;;51.10;46.05;;;6.20;69.40;;;;;;5093203;28;20667;-72
2022/03/26 02:44:47;;;;;;;52.80;47.10;;;6.20;69.10;;;;;;5093135;28;20287;-72
2022/03/26 02:47:14;;;;;;;51.55;46.40;;;6.20;69.00;;;;;;5092953;28;20222;-72
2022/03/26 02:49:41;;;;;;;49.78;44.72;;;6.10;69.30;;;;;;5092970;28;20248;-72
2022/03/26 02:52:08;;;;;;;49.45;44.75;;;6.00;69.60;;;;;;5093025;28;20258;-72
2022/03/26 02:54:37;;;;;;;51.60;46.72;;;6.00;69.90;;;;;;5093117;28;20191;-72
2022/03/26 02:57:05;;;;;;;51.70;46.70;;;6.10;69.60;;;;;;5092615;28;20572;-72
2022/03/26 02:59:32;;;;;;;49.78;44.60;;;6.10;69.40;;;;;;5092898;28;20239;-72
2022/03/26 03:01:59;;;;;;;52.17;46.92;;;6.10;69.30;;;;;;5092670;28;20223;-72
2022/03/26 03:04:26;;;;;;;50.80;45.63;;;6.00;69.60;;;;;;5092937;28;20551;-72
2022/03/26 03:06:53;;;;;;;48.88;44.22;;;6.00;69.80;;;;;;5092818;28;20288;-72
2022/03/26 03:09:20;;;;;;;50.63;45.60;;;6.00;69.60;;;;;;5092757;28;20202;-72
2022/03/26 03:11:48;;;;;;;50.90;46.10;;;6.00;69.50;;;;;;5092757;28;20206;-72
2022/03/26 03:14:16;;;;;;;50.83;45.63;;;5.90;69.80;;;;;;5092756;28;20223;-72
2022/03/26 03:16:43;;;;;;;51.90;46.85;;;5.80;70.40;;;;;;5092649;28;20198;-72
2022/03/26 03:19:10;;;;;;;52.13;47.05;;;5.70;70.80;;;;;;5092736;28;20615;-72
2022/03/26 03:21:37;;;;;;;53.88;48.17;;;5.70;70.70;;;;;;5092785;28;20206;-72
2022/03/26 03:24:04;;;;;;;50.78;45.67;;;5.80;70.30;;;;;;5092703;28;20203;-72
2022/03/26 03:26:32;;;;;;;50.20;45.53;;;5.80;70.30;;;;;;5092631;28;20214;-72
2022/03/26 03:29:00;;;;;;;52.15;47.03;;;5.70;70.50;;;;;;5092373;28;20718;-72
2022/03/26 03:31:28;;;;;;;50.53;45.35;;;5.60;70.90;;;;;;5092486;28;20200;-72
2022/03/26 03:33:55;;;;;;;52.05;46.70;;;5.60;70.90;;;;;;5092567;28;20571;-72
2022/03/26 03:36:22;;;;;;;49.50;44.30;;;5.60;70.70;;;;;;5092489;28;20203;-72
2022/03/26 03:38:49;;;;;;;51.83;46.28;;;5.60;70.80;;;;;;5092481;28;20608;-72
2022/03/26 03:41:17;;;;;;;50.40;45.35;;;5.50;71.10;;;;;;5092381;28;20195;-72
2022/03/26 03:43:44;;;;;;;51.13;46.42;;;5.50;71.50;;;;;;5092305;28;20247;-72
2022/03/26 03:46:12;;;;;;;52.08;46.83;;;5.60;71.10;;;;;;5092314;28;20206;-72
2022/03/26 03:48:39;;;;;;;50.78;45.50;;;5.50;71.10;;;;;;5095185;28;20237;-72
2022/03/26 03:51:07;;;;;;;51.17;46.17;;;5.50;71.00;;;;;;5096302;28;20206;-72
2022/03/26 03:53:34;;;;;;;51.65;46.22;;;5.50;71.10;;;;;;5096496;28;20219;-72
2022/03/26 03:56:01;;;;;;;51.53;46.40;;;5.40;71.40;;;;;;5096216;28;20218;-72
2022/03/26 03:58:28;;;;;;;49.20;44.40;;;5.40;71.50;;;;;;5096454;28;20198;-72
2022/03/26 04:00:55;;;;;;;51.13;45.95;;;5.40;71.60;;;;;;5096369;28;20199;-72
2022/03/26 04:03:23;;;;;;;51.53;46.33;;;5.40;71.40;;;;;;5096442;28;20235;-72
2022/03/26 04:05:50;;;;;;;52.25;47.05;;;5.30;71.50;;;;;;5096354;28;20227;-72
2022/03/26 04:08:17;;;;;;;50.78;45.75;;;5.20;72.10;;;;;;5096277;28;20220;-72
2022/03/26 04:10:44;;;;;;;52.60;46.83;;;5.10;72.50;;;;;;5096188;28;20797;-72
2022/03/26 04:13:11;;;;;;;52.33;47.03;;;5.10;72.60;;;;;;5096144;28;20280;-72
2022/03/26 04:15:39;;;;;;;50.13;45.22;;;5.20;72.20;;;;;;5096237;28;20278;-72
2022/03/26 04:18:06;;;;;;;49.58;44.72;;;5.20;71.90;;;;;;5096001;28;20195;-72
2022/03/26 04:20:35;;;;;;;50.42;45.33;;;5.20;72.00;;;;;;5095808;28;20207;-72
2022/03/26 04:23:02;;;;;;;52.03;46.95;;;5.20;72.20;;;;;;5096000;28;20347;-72
2022/03/26 04:25:31;;;;;;;52.80;47.80;;;5.10;72.60;;;;;;5095959;28;20253;-72
2022/03/26 04:27:58;;;;;;;49.92;44.92;;;5.10;72.50;;;;;;5095913;28;20223;-72
2022/03/26 04:30:25;;;;;;;49.65;44.55;;;5.10;72.50;;;;;;5095624;28;20289;-72
2022/03/26 04:32:52;;;;;;;52.08;46.97;;;5.00;72.60;;;;;;5095639;28;20215;-72
2022/03/26 04:35:19;;;;;;;49.47;44.63;;;5.00;72.50;;;;;;5095847;28;20191;-72
2022/03/26 04:37:47;;;;;;;48.38;43.40;;;5.00;72.80;;;;;;5095662;28;20282;-72
2022/03/26 04:40:14;;;;;;;52.17;46.55;;;5.00;72.80;;;;;;5095444;28;20218;-72
2022/03/26 04:42:42;;;;;;;49.15;43.90;;;4.90;73.20;;;;;;5095511;28;20299;-72
2022/03/26 04:45:10;;;;;;;50.00;45.08;;;4.90;73.10;;;;;;5095557;28;20201;-72
2022/03/26 04:47:38;;;;;;;50.85;45.70;;;4.90;72.80;;;;;;5095451;28;20559;-72
2022/03/26 04:50:06;;;;;;;50.95;45.35;;;5.00;72.50;;;;;;5095284;28;20281;-72
2022/03/26 04:52:33;;;;;;;51.85;46.35;;;5.00;72.60;;;;;;5095364;28;20220;-72
2022/03/26 04:55:02;;;;;;;49.95;45.13;;;4.90;73.10;;;;;;5095463;28;20195;-72
2022/03/26 04:57:29;;;;;;;51.70;46.25;;;4.90;73.20;;;;;;5095207;28;20203;-72
2022/03/26 04:59:56;;;;;;;53.58;48.17;;;4.80;73.30;;;;;;5094371;28;20199;-72
2022/03/26 05:02:23;;;;;;;52.55;47.05;;;4.80;73.00;;;;;;5095100;28;20306;-72
2022/03/26 05:04:50;;;;;;;53.50;48.08;;;4.80;73.20;;;;;;5095051;28;20207;-72
2022/03/26 05:10:03;;;;;;;48.83;43.83;;;4.70;73.80;;;;;;5095042;28;20206;-72
2022/03/26 05:12:30;;;;;;;48.72;44.13;;;4.60;73.90;;;;;;5095348;28;20352;-72
2022/03/26 05:14:57;;;;;;;49.83;45.00;;;4.70;73.80;;;;;;5095079;28;20278;-72
2022/03/26 05:17:23;;;;;;;49.55;44.75;;;4.50;74.00;;;;;;5094976;28;20610;-72
2022/03/26 05:19:50;;;;;;;49.50;44.45;;;4.50;74.00;;;;;;5094675;28;20213;-72
2022/03/26 05:22:17;;;;;;;48.53;44.03;;;4.50;74.00;;;;;;5094901;28;20215;-72
2022/03/26 05:24:44;;;;;;;49.80;44.75;;;4.50;74.30;;;;;;5094748;28;20196;-72
2022/03/26 05:27:12;;;;;;;50.55;45.05;;;4.50;74.50;;;;;;5094678;28;20575;-72
2022/03/26 05:29:39;;;;;;;49.05;44.35;;;4.50;74.60;;;;;;5094411;28;20219;-72
2022/03/26 05:32:07;;;;;;;50.60;45.10;;;4.60;74.10;;;;;;5094401;28;20215;-72
2022/03/26 05:34:34;;;;;;;50.17;44.88;;;4.80;73.60;;;;;;5094609;28;20253;-72
2022/03/26 05:37:01;;;;;;;51.30;46.45;;;4.80;73.10;;;;;;5094510;28;20199;-72
2022/03/26 05:39:28;;;;;;;49.53;44.47;;;4.80;73.10;;;;;;5094384;28;20200;-72
2022/03/26 05:41:54;;;;;;;48.85;43.72;;;4.80;73.30;;;;;;5094390;28;20722;-72
2022/03/26 05:44:23;;;;;;;50.17;44.90;;;4.70;73.80;;;;;;5094357;28;20196;-72
2022/03/26 05:46:50;;;;;;;50.17;45.08;;;4.70;73.80;;;;;;5094244;28;20283;-72
2022/03/26 05:49:17;;;;;;;48.22;43.55;;;4.80;73.50;;;;;;5094114;28;20219;-72
2022/03/26 05:51:44;;;;;;;48.55;43.67;;;4.90;72.70;;;;;;5094220;28;20202;-72
2022/03/26 05:54:11;;;;;;;48.22;43.20;;;4.90;72.60;;;;;;5094295;28;20203;-72
2022/03/26 05:56:39;;;;;;;49.85;44.67;;;5.00;72.80;;;;;;5094034;28;20200;-72
2022/03/26 05:59:09;;;;;;;48.08;43.28;;;4.90;73.00;;;;;;5094000;28;20286;-72
2022/03/26 06:01:39;;;;;;;49.53;44.63;;;4.90;73.20;;;;;;5093867;28;20199;-72
2022/03/26 06:04:08;;;;;;;48.33;43.42;;;5.00;73.10;;;;;;5094041;28;20195;-72
2022/03/26 06:06:34;;;;;;;50.42;45.55;;;5.10;72.70;;;;;;5094001;28;20202;-72
2022/03/26 06:09:01;;;;;;;50.35;45.45;;;5.20;72.50;;;;;;5093776;28;20218;-72
2022/03/26 06:11:28;;;;;;;50.35;45.35;;;5.00;72.50;;;;;;5092763;28;20752;-72
2022/03/26 06:13:55;;;;;;;48.20;43.55;;;5.10;72.80;;;;;;5093901;28;20195;-72
2022/03/26 06:16:22;;;;;;;49.22;44.30;;;5.10;72.70;;;;;;5094009;28;20302;-71
2022/03/26 06:18:50;;;;;;;50.17;45.25;;;5.20;72.70;;;;;;5093667;28;20199;-72
2022/03/26 06:21:17;;;;;;;49.75;44.38;;;5.30;72.50;;;;;;5093497;28;20564;-72
2022/03/26 06:23:44;;;;;;;51.90;46.47;;;5.50;72.00;;;;;;5093611;28;20298;-72
2022/03/26 06:26:11;;;;;;;52.13;46.75;;;5.60;71.30;;;;;;5093487;28;20196;-72
2022/03/26 06:28:38;;;;;;;49.72;43.67;;;5.60;71.30;;;;;;5093404;28;20222;-72
2022/03/26 06:31:06;;;;;;;49.60;44.60;;;5.80;70.90;;;;;;5093276;28;20665;-72
2022/03/26 06:33:33;;;;;;;49.38;44.47;;;5.80;70.60;;;;;;5093467;28;20251;-72
2022/03/26 06:36:01;;;;;;;50.03;45.03;;;5.90;70.40;;;;;;5093426;28;20616;-72
2022/03/26 06:38:31;;;;;;;49.35;44.80;;;6.00;70.30;;;;;;5093219;28;20732;-72
2022/03/26 06:40:58;;;;;;;48.08;43.38;;;6.10;69.80;;;;;;5093257;28;20234;-72
2022/03/26 06:43:25;;;;;;;48.80;43.95;;;6.30;69.60;;;;;;5093648;28;20216;-72
2022/03/26 06:45:52;;;;;;;49.92;45.22;;;6.30;69.10;;;;;;5093170;28;20206;-72
2022/03/26 06:48:19;;;;;;;49.13;44.15;;;6.30;68.90;;;;;;5093183;28;20737;-72
2022/03/26 06:50:46;;;;;;;47.65;43.03;;;6.50;68.90;;;;;;5092924;28;20231;-72
2022/03/26 06:53:14;;;;;;;49.95;45.25;;;6.60;68.60;;;;;;5093013;28;20215;-72
2022/03/26 06:55:42;;;;;;;49.67;44.95;;;6.70;68.20;;;;;;5092941;28;20660;-72
2022/03/26 06:58:09;;;;;;;49.53;44.55;;;6.80;68.00;;;;;;5092888;28;20200;-72
2022/03/26 07:00:36;;;;;;;48.97;44.35;;;6.90;67.90;;;;;;5092807;28;20200;-72
2022/03/26 07:03:03;;;;;;;49.58;44.65;;;7.10;67.60;;;;;;5092704;28;20274;-72
2022/03/26 07:05:30;;;;;;;51.60;46.25;;;7.30;67.10;;;;;;5092690;28;20671;-72
2022/03/26 07:07:57;;;;;;;51.72;46.33;;;7.50;66.40;;;;;;5092829;28;20199;-72
2022/03/26 07:10:26;;;;;;;52.10;46.97;;;7.60;66.00;;;;;;5092554;28;20217;-72
2022/03/26 07:12:53;;;;;;;52.15;47.05;;;7.80;65.50;;;;;;5092739;28;20213;-72
2022/03/26 07:15:19;;;;;;;50.28;45.33;;;7.90;65.20;;;;;;5092839;28;20199;-72
2022/03/26 07:17:46;;;;;;;53.38;47.35;;;8.00;64.20;;;;;;5092751;28;20196;-72
2022/03/26 07:20:14;;;;;;;52.38;47.08;;;8.10;63.70;;;;;;5092432;28;20564;-72
2022/03/26 07:22:41;;;;;;;50.78;45.55;;;8.20;63.30;;;;;;5092417;28;20212;-72
2022/03/26 07:25:09;;;;;;;51.83;45.53;;;8.40;62.60;;;;;;5092673;28;20288;-72
2022/03/26 07:27:38;;;;;;;51.15;45.85;;;8.50;62.20;;;;;;5092633;28;20716;-72
2022/03/26 07:30:06;;;;;;;48.55;43.65;;;8.70;61.80;;;;;;5092413;28;20653;-72
2022/03/26 07:32:33;;;;;;;49.15;44.40;;;8.90;61.00;;;;;;5092815;28;20215;-72
2022/03/26 07:35:00;;;;;;;50.05;44.83;;;9.00;60.20;;;;;;5092521;28;20195;-72
2022/03/26 07:37:27;;;;;;;49.78;44.58;;;9.10;59.80;;;;;;5092518;28;20284;-72
2022/03/26 07:39:54;;;;;;;48.60;43.38;;;9.10;59.50;;;;;;5092364;28;20194;-72
2022/03/26 07:42:21;;;;;;;55.35;47.42;;;9.30;59.30;;;;;;5092511;28;20221;-72
2022/03/26 07:44:49;;;;;;;51.05;45.67;;;9.30;59.40;;;;;;5092449;28;20287;-72
2022/03/26 07:47:16;;;;;;;48.90;44.03;;;9.40;59.00;;;;;;5092433;28;20600;-72
2022/03/26 07:49:43;;;;;;;52.70;47.17;;;9.40;58.60;;;;;;5092125;28;20245;-73
2022/03/26 07:52:10;;;;;;;55.80;47.33;;;9.60;58.70;;;;;;5092495;28;20225;-72
2022/03/26 07:54:37;;;;;;;50.53;45.22;;;9.60;58.40;;;;;;5092392;28;20206;-73
2022/03/26 07:57:04;;;;;;;51.17;45.88;;;9.80;58.40;;;;;;5092072;28;20199;-72
2022/03/26 07:59:31;;;;;;;50.90;45.90;;;10.00;57.90;;;;;;5092234;28;20198;-73
2022/03/26 08:01:59;;;;;;;51.78;46.58;;;9.90;57.80;;;;;;5092060;28;20248;-72
2022/03/26 08:04:27;;;;;;;51.08;46.03;;;9.90;57.70;;;;;;5092306;28;20195;-72
2022/03/26 08:06:53;;;;;;;51.22;45.80;;;10.00;57.50;;;;;;5092377;28;20194;-72
2022/03/26 08:09:20;;;;;;;50.03;44.97;;;10.10;56.50;;;;;;5092150;28;20224;-72
2022/03/26 08:11:47;;;;;;;52.25;47.05;;;10.20;56.30;;;;;;5092153;28;20203;-73
2022/03/26 08:14:14;;;;;;;51.80;46.60;;;10.30;56.00;;;;;;5092186;28;20261;-72
2022/03/26 08:16:41;;;;;;;52.13;46.92;;;10.40;55.90;;;;;;5092243;28;20203;-72
2022/03/26 08:19:10;;;;;;;49.67;44.88;;;10.50;55.40;;;;;;5091976;28;20263;-72
2022/03/26 08:21:37;;;;;;;54.13;48.25;;;10.60;55.20;;;;;;5092145;28;20202;-72
2022/03/26 08:24:04;;;;;;;51.20;46.33;;;10.60;55.10;;;;;;5092153;28;20281;-72
2022/03/26 08:26:31;;;;;;;50.57;45.37;;;10.70;54.70;;;;;;5092107;28;20251;-72
2022/03/26 08:29:00;;;;;;;50.27;45.00;;;10.80;54.40;;;;;;5091955;28;20477;-73
2022/03/26 08:31:29;;;;;;;50.03;44.97;;;10.80;54.50;;;;;;5091870;28;20931;-73
2022/03/26 08:33:57;;;;;;;50.57;45.30;;;10.80;54.80;;;;;;5092168;28;20447;-73
2022/03/26 08:36:25;;;;;;;51.13;45.80;;;10.80;54.50;;;;;;5095700;28;20464;-73
2022/03/26 08:38:52;;;;;;;50.77;45.53;;;10.90;54.40;;;;;;5095690;28;20460;-73
2022/03/26 08:41:20;;;;;;;51.30;46.17;;;11.00;53.90;;;;;;5095409;28;20463;-73
2022/03/26 08:43:49;;;;;;;49.60;44.70;;;11.10;53.60;;;;;;5095443;28;20496;-73
2022/03/26 08:46:16;;;;;;;51.87;46.53;;;11.20;53.60;;;;;;5095434;28;20988;-73
2022/03/26 08:48:43;;;;;;;54.80;48.73;;;11.30;53.20;;;;;;5095333;28;20504;-73
2022/03/26 08:51:10;;;;;;;51.57;46.23;;;11.30;53.00;;;;;;5095186;28;20456;-73
2022/03/26 08:53:38;;;;;;;53.77;48.17;;;11.40;53.00;;;;;;5095279;28;20854;-73
2022/03/26 08:56:06;;;;;;;55.23;49.13;;;11.60;53.10;;;;;;5094991;28;20456;-73
2022/03/26 08:58:33;;;;;;;53.10;47.50;;;11.70;52.60;;;;;;5095439;28;20538;-73
2022/03/26 09:01:01;;;;;;;53.07;48.03;;;11.70;52.70;;;;;;5094916;28;20450;-73
2022/03/26 09:03:28;;;;;;;52.00;46.73;;;11.60;52.60;;;;;;5095276;28;20537;-73
2022/03/26 09:05:56;;;;;;;50.00;44.90;;;11.70;52.30;;;;;;5095087;28;20457;-73
2022/03/26 09:08:23;;;;;;;52.50;46.87;;;11.80;52.20;;;;;;5094930;28;20456;-73
2022/03/26 09:10:51;;;;;;;54.50;48.93;;;11.90;52.10;;;;;;5094840;28;20476;-73
2022/03/26 09:13:18;;;;;;;51.50;46.27;;;12.10;51.60;;;;;;5094996;28;20473;-73
2022/03/26 09:15:46;;;;;;;50.37;45.33;;;12.10;51.30;;;;;;5094964;28;20507;-73
2022/03/26 09:18:12;;;;;;;53.07;47.40;;;12.20;51.10;;;;;;5094620;28;21010;-73
2022/03/26 09:20:39;;;;;;;53.70;48.20;;;12.40;51.00;;;;;;5094871;28;20446;-73
2022/03/26 09:23:06;;;;;;;53.37;47.93;;;12.60;50.70;;;;;;5095073;28;20499;-73
2022/03/26 09:25:34;;;;;;;52.00;46.80;;;12.70;50.10;;;;;;5094622;28;20463;-73
2022/03/26 09:28:03;;;;;;;53.80;48.13;;;12.80;49.80;;;;;;5094718;28;20446;-73
2022/03/26 09:30:31;;;;;;;54.30;48.40;;;12.80;49.70;;;;;;5094390;28;20499;-73
2022/03/26 09:32:58;;;;;;;53.40;47.90;;;12.80;49.60;;;;;;5094522;28;20526;-73
2022/03/26 09:35:25;;;;;;;55.57;49.90;;;12.80;50.10;;;;;;5094474;28;20445;-73
2022/03/26 09:37:52;;;;;;;52.30;47.23;;;12.90;49.90;;;;;;5094342;28;20536;-73
2022/03/26 09:40:21;;;;;;;53.83;48.10;;;13.00;49.80;;;;;;5094125;28;20462;-73
2022/03/26 09:42:49;;;;;;;52.37;46.77;;;13.00;49.80;;;;;;5094409;28;20469;-73
2022/03/26 09:45:18;;;;;;;51.40;46.40;;;13.20;49.30;;;;;;5094205;28;20480;-73
2022/03/26 09:47:45;;;;;;;56.07;50.37;;;13.20;49.30;;;;;;5094433;28;20458;-73
2022/03/26 09:50:13;;;;;;;53.73;48.37;;;13.20;49.50;;;;;;5094143;28;20986;-73
2022/03/26 09:52:41;;;;;;;54.53;48.93;;;13.30;49.40;;;;;;5094195;28;20480;-73
2022/03/26 09:55:11;;;;;;;54.40;48.93;;;13.40;49.30;;;;;;5094188;28;20450;-73
2022/03/26 09:57:38;;;;;;;55.17;48.90;;;13.50;49.10;;;;;;5093870;28;20515;-73
2022/03/26 10:00:07;;;;;;;55.57;49.73;;;13.50;48.80;;;;;;5094001;28;20450;-73
2022/03/26 10:02:35;;;;;;;54.17;48.20;;;13.60;48.90;;;;;;5093778;28;20473;-73
2022/03/26 10:05:04;;;;;;;54.60;47.73;;;13.70;48.60;;;;;;5093962;28;20559;-73
2022/03/26 10:07:31;;;;;;;55.03;49.57;;;13.70;48.90;;;;;;5093966;28;20449;-73
2022/03/26 10:09:58;;;;;;;55.17;49.13;;;13.80;48.50;;;;;;5093790;28;20483;-73
2022/03/26 10:12:26;;;;;;;54.60;48.90;;;14.00;48.30;;;;;;5093763;28;21098;-73
2022/03/26 10:14:55;;;;;;;54.87;49.10;;;14.10;47.60;;;;;;5093884;28;20953;-73
2022/03/26 10:17:25;;;;;;;54.23;48.20;;;14.20;47.80;;;;;;5093658;28;20458;-73
2022/03/26 10:19:55;;;;;;;53.33;47.83;;;14.20;47.80;;;;;;5093426;28;20762;-73
2022/03/26 10:22:26;;;;;;;54.63;49.00;;;14.30;48.10;;;;;;5093907;28;20478;-73
2022/03/26 10:24:54;;;;;;;52.00;46.60;;;14.20;48.00;;;;;;5093661;28;20536;-73
2022/03/26 10:27:21;;;;;;;55.90;49.80;;;14.30;47.90;;;;;;5093663;28;20449;-73
2022/03/26 10:29:53;;;;;;;84.27;57.20;;;14.40;47.60;;;;;;5093094;28;20477;-73
2022/03/26 10:32:39;;;;;;;56.53;50.83;;;14.50;47.30;;;;;;5093570;28;20473;-73
2022/03/26 10:35:11;;;;;;;55.13;49.63;;;14.70;47.10;;;;;;5093531;28;20454;-73
2022/03/26 10:37:45;;;;;;;55.40;49.83;;;14.90;46.70;;;;;;5093502;28;20536;-73
2022/03/26 10:40:21;;;;;;;53.20;48.00;;;15.00;46.30;;;;;;5093138;28;20939;-73
2022/03/26 10:43:03;;;;;;;54.80;49.10;;;15.10;46.50;;;;;;5093184;28;20473;-73
2022/03/26 10:45:31;;;;;;;54.70;49.30;;;15.10;45.90;;;;;;5093368;28;20445;-73
2022/03/26 10:48:00;;;;;;;55.73;49.77;;;15.30;45.40;;;;;;5093303;28;20450;-73
2022/03/26 10:50:34;;;;;;;53.70;48.37;;;15.40;45.30;;;;;;5092809;28;21093;-73
2022/03/26 10:53:06;;;;;;;54.60;48.80;;;15.60;45.20;;;;;;5093328;28;20482;-72
2022/03/26 10:55:34;;;;;;;55.20;49.77;;;15.60;45.20;;;;;;5093167;28;20453;-73
2022/03/26 10:58:05;;;;;;;53.57;48.37;;;15.70;45.10;;;;;;5092205;28;20793;-73
2022/03/26 11:00:31;;;;;;;52.57;47.27;;;15.90;44.70;;;;;;5092956;28;20445;-73
2022/03/26 11:02:58;;;;;;;54.13;48.20;;;16.10;44.10;;;;;;5092838;28;20565;-73
2022/03/26 11:05:29;;;;;;;53.20;47.90;;;16.10;42.80;;;;;;5092687;28;20906;-73
2022/03/26 11:07:57;;;;;;;54.23;48.73;;;16.20;43.60;;;;;;5092882;28;20461;-73
2022/03/26 11:10:25;;;;;;;54.03;48.47;;;16.20;43.20;;;;;;5092546;28;20473;-73
2022/03/26 11:12:53;;;;;;;53.90;48.50;;;16.30;43.40;;;;;;5092788;28;20560;-73
2022/03/26 11:15:24;;;;;;;55.90;50.40;;;16.40;43.40;;;;;;5092943;28;20457;-73
2022/03/26 11:18:16;;;;;;;54.57;49.13;;;16.60;42.50;;;;;;5092752;28;20457;-73
2022/03/26 11:21:11;;;;;;;56.23;51.03;;;16.60;42.60;;;;;;5092707;28;20495;-73
2022/03/26 11:24:00;;;;;;;52.30;47.33;;;16.60;42.00;;;;;;5092725;28;20462;-73
2022/03/26 11:26:41;;;;;;;51.97;46.77;;;16.80;40.80;;;;;;5092685;28;20477;-73
2022/03/26 11:29:23;;;;;;;55.73;50.70;;;16.90;40.10;;;;;;5092570;28;20537;-73
2022/03/26 11:31:56;;;;;;;53.67;48.47;;;17.00;39.80;;;;;;5092580;28;20480;-73
2022/03/26 11:34:23;;;;;;;51.90;46.67;;;17.20;39.20;;;;;;5092674;28;20460;-72
2022/03/26 11:36:52;;;;;;;49.63;45.03;;;17.20;39.30;;;;;;5092981;28;20449;-73
2022/03/26 11:39:21;;;;;;;50.53;45.60;;;17.20;39.60;;;;;;5092747;28;20519;-73
2022/03/26 11:41:48;;;;;;;51.30;46.27;;;17.30;39.20;;;;;;5092723;28;20538;-73
2022/03/26 11:44:17;;;;;;;55.83;50.23;;;17.40;38.70;;;;;;5092653;28;20446;-73
2022/03/26 11:52:22;;;;;;;50.10;45.57;;;17.70;37.80;;;;;;5092625;28;20477;-73
2022/03/26 11:54:54;;;;;;;51.57;46.60;;;17.50;38.30;;;;;;5092483;28;20545;-73
2022/03/26 11:57:22;;;;;;;49.20;44.70;;;17.60;37.90;;;;;;5092084;28;20458;-73
2022/03/26 11:59:50;;;;;;;48.73;43.90;;;17.70;38.00;;;;;;5092204;28;20992;-73
2022/03/26 12:02:22;;;;;;;47.40;43.10;;;17.70;37.30;;;;;;5092149;28;21037;-73
2022/03/26 12:04:51;;;;;;;46.30;41.93;;;17.80;36.10;;;;;;5092349;28;20472;-73
2022/03/26 12:07:20;;;;;;;46.30;42.00;;;17.80;35.90;;;;;;5092286;28;20452;-73
2022/03/26 12:09:48;;;;;;;49.10;44.40;;;17.90;36.00;;;;;;5093306;28;20491;-73
2022/03/26 12:12:19;;;;;;;46.87;42.30;;;17.90;36.20;;;;;;5096126;28;21059;-73
2022/03/26 12:15:22;;;;;;;47.00;42.60;;;18.00;36.20;;;;;;5096186;28;20449;-73
2022/03/26 12:17:50;;;;;;;46.50;42.20;;;18.10;36.20;;;;;;5095999;28;20445;-73
2022/03/26 12:20:24;;;;;;;45.30;40.87;;;18.10;36.10;;;;;;5095610;28;20457;-73
2022/03/26 12:23:02;;;;;;;47.87;43.30;;;18.10;35.80;;;;;;5095971;28;20474;-73
2022/03/26 12:25:46;;;;;;;46.37;42.00;;;18.20;35.90;;;;;;5096188;28;20531;-73
2022/03/26 12:28:14;;;;;;;45.70;41.13;;;18.00;35.60;;;;;;5095903;28;20461;-73
2022/03/26 12:30:46;;;;;;;45.10;41.10;;;18.10;35.60;;;;;;5095411;28;20480;-73
2022/03/26 12:33:14;;;;;;;45.27;41.07;;;18.30;35.10;;;;;;5095716;28;20484;-73
2022/03/26 12:35:43;;;;;;;43.67;39.90;;;18.50;34.30;;;;;;5095807;28;20453;-73
2022/03/26 12:38:11;;;;;;;43.60;39.20;;;18.40;34.20;;;;;;5095762;28;20449;-73
2022/03/26 12:40:39;;;;;;;42.67;38.70;;;18.50;33.20;;;;;;5095401;28;20450;-73
2022/03/26 12:43:08;;;;;;;42.20;38.47;;;18.50;33.20;;;;;;5095730;28;20515;-73
2022/03/26 12:45:35;;;;;;;41.57;37.97;;;18.60;32.70;;;;;;5095628;28;20965;-73